Time;durP1;ratioP1;P1;durP2;ratioP2;P2;SDS_P1;SDS_P2;PMS_P1;PMS_P2;Temp;Humidity;BMP_temperature;BMP_pressure;BME280_temperature;BME280_humidity;BME280_pressure;Samples;Min_cycle;Max_cycle;Signal;HPM_P1;HPM_P2
2022/09/13 00:00:19;;;;;;;;;6.25;4.75;;;;;22.64;53.27;100115.00;5034217;28;46227;-73
2022/09/13 00:02:44;;;;;;;;;7.75;6.50;;;;;22.57;53.69;100108.38;5032965;28;45354;-73
2022/09/13 00:05:10;;;;;;;;;8.50;7.00;;;;;22.55;54.01;100113.88;5034038;28;45429;-73
2022/09/13 00:07:35;;;;;;;;;7.25;6.25;;;;;22.50;54.17;100106.16;5034201;28;45442;-74
2022/09/13 00:10:01;;;;;;;;;8.50;6.50;;;;;22.50;54.02;100116.06;5034543;28;46068;-74
2022/09/13 00:12:26;;;;;;;;;6.00;6.00;;;;;22.47;54.24;100113.59;5034851;28;45420;-74
2022/09/13 00:14:51;;;;;;;;;7.00;6.00;;;;;22.44;54.44;100116.53;5034373;28;45515;-73
2022/09/13 00:17:17;;;;;;;;;4.50;4.00;;;;;22.44;54.36;100122.78;5033660;28;45391;-74
2022/09/13 00:19:42;;;;;;;;;6.75;4.00;;;;;22.44;54.61;100133.56;5033479;28;45590;-74
2022/09/13 00:22:07;;;;;;;;;3.75;3.50;;;;;22.44;54.28;100127.31;5031825;28;45455;-74
2022/09/13 00:24:33;;;;;;;;;4.00;4.00;;;;;22.38;53.83;100122.38;5032317;28;45328;-74
2022/09/13 00:26:59;;;;;;;;;7.00;6.00;;;;;22.39;54.15;100122.28;5014606;28;45485;-74
2022/09/13 00:29:26;;;;;;;;;6.00;5.50;;;;;22.36;54.53;100122.50;5013743;28;46145;-74
2022/09/13 00:31:51;;;;;;;;;8.00;6.50;;;;;22.32;54.23;100113.81;5013872;28;45388;-74
2022/09/13 00:34:17;;;;;;;;;7.00;3.75;;;;;22.28;54.67;100117.69;5013868;28;45421;-74
2022/09/13 00:36:42;;;;;;;;;8.00;6.25;;;;;22.27;54.47;100113.25;5022074;28;45467;-74
2022/09/13 00:39:09;;;;;;;;;3.50;3.50;;;;;22.21;54.88;100104.81;5033523;28;45440;-74
2022/09/13 00:41:34;;;;;;;;;4.75;4.75;;;;;22.21;54.99;100096.75;5033945;28;45447;-74
2022/09/13 00:44:02;;;;;;;;;7.50;4.50;;;;;22.18;54.73;100089.75;5033677;28;45417;-73
2022/09/13 00:46:40;;;;;;;;;4.00;4.00;;;;;22.17;54.81;100098.81;5033265;28;45640;-74
2022/09/13 00:49:34;;;;;;;;;6.25;4.25;;;;;22.18;54.71;100087.94;5033956;28;45693;-74
2022/09/13 00:52:05;;;;;;;;;6.50;3.00;;;;;22.21;54.57;100088.66;5032939;28;45359;-74
2022/09/13 00:54:39;;;;;;;;;6.50;6.00;;;;;22.23;54.37;100089.41;5033260;28;45494;-73
2022/09/13 00:57:06;;;;;;;;;7.00;6.50;;;;;22.23;54.77;100097.47;5033154;28;45382;-72
2022/09/13 00:59:51;;;;;;;;;7.00;6.50;;;;;22.23;54.91;100084.88;5033349;28;46286;-74
2022/09/13 01:02:17;;;;;;;;;3.00;3.00;;;;;22.15;55.03;100077.41;5032889;28;45363;-74
2022/09/13 01:04:43;;;;;;;;;6.25;5.25;;;;;22.19;54.97;100089.63;5033357;28;45436;-74
2022/09/13 01:07:12;;;;;;;;;7.00;7.00;;;;;22.17;55.17;100088.91;5033461;28;45375;-73
2022/09/13 01:09:43;;;;;;;;;5.75;5.75;;;;;22.15;55.53;100084.59;5036010;28;46009;-73
2022/09/13 01:12:34;;;;;;;;;5.75;5.75;;;;;22.11;55.76;100070.53;5036662;28;45368;-74
2022/09/13 01:15:03;;;;;;;;;7.00;6.75;;;;;22.12;55.68;100074.94;5036661;28;45368;-73
2022/09/13 01:17:29;;;;;;;;;5.25;5.00;;;;;22.12;55.68;100066.00;5036971;28;45510;-74
2022/09/13 01:19:55;;;;;;;;;8.25;6.00;;;;;22.10;55.65;100058.06;5036852;28;46013;-73
2022/09/13 01:22:27;;;;;;;;;8.50;6.50;;;;;22.11;55.69;100061.63;5036309;28;45832;-72
2022/09/13 01:25:18;;;;;;;;;6.25;5.75;;;;;22.09;55.51;100063.53;5036197;28;45412;-73
2022/09/13 01:27:58;;;;;;;;;6.00;6.00;;;;;22.09;55.93;100069.81;5036321;28;45495;-73
2022/09/13 01:30:29;;;;;;;;;7.75;7.50;;;;;22.00;55.67;100049.84;5036075;28;46204;-74
2022/09/13 01:33:25;;;;;;;;;5.75;5.50;;;;;22.04;55.68;100050.44;5036436;28;45384;-74
2022/09/13 01:36:31;;;;;;;;;7.50;6.00;;;;;22.11;55.55;100059.78;5036743;28;45443;-72
2022/09/13 01:39:02;;;;;;;;;8.75;7.75;;;;;22.12;55.79;100064.19;5036427;28;45364;-74
2022/09/13 01:42:00;;;;;;;;;6.00;6.00;;;;;22.13;55.54;100063.19;5036047;28;45473;-73
2022/09/13 01:44:53;;;;;;;;;11.25;8.50;;;;;22.14;55.62;100050.63;4973260;28;46898;-73
2022/09/13 01:47:53;;;;;;;;;8.00;8.00;;;;;22.14;55.58;100046.09;4955358;28;45421;-74
2022/09/13 01:50:39;;;;;;;;;6.25;6.25;;;;;22.14;55.30;100045.25;4955419;28;45482;-73
2022/09/13 01:53:08;;;;;;;;;10.25;8.00;;;;;22.14;55.50;100042.53;4954925;28;45992;-74
2022/09/13 01:55:47;;;;;;;;;5.25;5.25;;;;;22.15;55.10;100042.44;4955641;28;45522;-73
2022/09/13 01:58:19;;;;;;;;;5.50;5.50;;;;;22.14;54.96;100029.09;4955185;28;45498;-73
2022/09/13 02:00:56;;;;;;;;;7.00;7.00;;;;;22.17;55.05;100035.09;4967738;28;45546;-73
2022/09/13 02:03:30;;;;;;;;;9.75;8.75;;;;;22.18;54.95;100031.44;4974119;28;46333;-73
2022/09/13 02:06:02;;;;;;;;;8.50;7.00;;;;;22.18;55.62;100026.03;4974322;28;45533;-73
2022/09/13 02:08:39;;;;;;;;;12.25;7.75;;;;;22.18;55.59;100026.03;4974146;28;45592;-74
2022/09/13 02:11:13;;;;;;;;;5.50;4.50;;;;;22.10;55.51;100015.00;4969924;28;45545;-72
2022/09/13 02:13:45;;;;;;;;;7.25;6.00;;;;;22.11;55.78;100027.50;4954399;28;45562;-73
2022/09/13 02:16:18;;;;;;;;;12.50;7.00;;;;;22.07;55.94;100017.09;4953732;28;45424;-73
2022/09/13 02:18:51;;;;;;;;;7.75;6.00;;;;;22.05;55.46;100017.19;4954580;28;45497;-73
2022/09/13 02:21:25;;;;;;;;;7.50;6.75;;;;;22.03;55.45;100023.66;4985085;28;45398;-73
2022/09/13 02:23:59;;;;;;;;;7.25;5.00;;;;;21.99;55.32;100021.22;5035328;28;45529;-74
2022/09/13 02:26:26;;;;;;;;;6.50;5.00;;;;;22.02;55.25;100016.59;5036212;28;45475;-74
2022/09/13 02:28:54;;;;;;;;;8.25;7.00;;;;;21.97;55.41;100009.72;5034321;28;45549;-73
2022/09/13 02:31:29;;;;;;;;;6.25;5.00;;;;;21.98;55.25;100010.56;5035704;28;45540;-73
2022/09/13 02:34:03;;;;;;;;;7.00;5.75;;;;;21.97;55.57;100017.78;5035596;28;46027;-73
2022/09/13 02:36:34;;;;;;;;;9.25;7.00;;;;;21.86;55.79;99995.38;5036048;28;45349;-73
2022/09/13 02:39:02;;;;;;;;;9.25;6.75;;;;;21.90;55.19;100007.63;5035089;28;45443;-73
2022/09/13 02:42:29;;;;;;;;;7.00;6.00;;;;;21.91;55.27;100009.31;5035428;28;45376;-74
2022/09/13 02:44:58;;;;;;;;;5.00;4.50;;;;;21.89;55.36;100008.59;4939269;28;45642;-74
2022/09/13 02:47:36;;;;;;;;;5.75;5.00;;;;;21.88;55.35;100006.84;4934856;28;45525;-73
2022/09/13 02:50:08;;;;;;;;;4.00;4.00;;;;;21.87;55.35;99999.78;4947420;28;45387;-73
2022/09/13 02:52:58;;;;;;;;;7.00;7.00;;;;;21.86;55.55;99996.22;4954318;28;45463;-73
2022/09/13 02:55:49;;;;;;;;;6.50;2.00;;;;;21.86;55.45;99992.69;4953804;28;45389;-72
2022/09/13 02:58:27;;;;;;;;;7.75;4.00;;;;;21.86;55.61;99990.00;4953698;28;45555;-73
2022/09/13 03:00:53;;;;;;;;;7.00;7.00;;;;;21.82;55.52;99992.06;4952775;28;45557;-74
2022/09/13 03:03:19;;;;;;;;;6.00;6.00;;;;;21.82;55.51;100002.81;4953886;28;45395;-73
2022/09/13 03:05:45;;;;;;;;;6.25;3.50;;;;;21.80;55.46;99994.88;4954039;28;45423;-73
2022/09/13 03:08:15;;;;;;;;;3.00;3.00;;;;;21.80;55.81;99994.88;4953285;28;45547;-72
2022/09/13 03:11:22;;;;;;;;;3.50;3.50;;;;;21.79;55.41;99993.16;4954222;28;45479;-73
2022/09/13 03:13:50;;;;;;;;;3.00;3.00;;;;;21.78;55.92;99988.72;4953171;28;45473;-74
2022/09/13 03:16:31;;;;;;;;;4.00;4.00;;;;;21.77;55.48;99989.72;4953596;28;46299;-73
2022/09/13 03:19:31;;;;;;;;;3.25;2.50;;;;;21.77;55.52;99987.03;4995099;28;45457;-73
2022/09/13 03:22:14;;;;;;;;;3.00;3.00;;;;;21.75;55.43;99986.28;4993082;28;45640;-73
2022/09/13 03:24:39;;;;;;;;;2.50;2.50;;;;;21.75;55.46;99978.22;4993282;28;45576;-73
2022/09/13 03:27:29;;;;;;;;;5.75;2.75;;;;;21.76;55.47;99982.63;4991949;28;46110;-73
2022/09/13 03:30:16;;;;;;;;;2.25;2.25;;;;;21.78;55.44;99988.72;4977656;28;45670;-75
2022/09/13 03:32:50;;;;;;;;;3.50;2.75;;;;;21.78;55.40;99983.34;4953769;28;45552;-74
2022/09/13 03:35:27;;;;;;;;;5.00;2.00;;;;;21.79;55.34;99985.09;4953808;28;45476;-74
2022/09/13 03:38:23;;;;;;;;;1.75;1.75;;;;;21.79;55.29;99992.31;4953151;28;46125;-74
2022/09/13 03:41:01;;;;;;;;;2.50;2.50;;;;;21.75;55.55;99994.34;4972487;28;45487;-75
2022/09/13 03:43:35;;;;;;;;;2.50;2.50;;;;;21.78;55.85;99999.50;4971906;28;45635;-74
2022/09/13 03:46:08;;;;;;;;;2.25;2.25;;;;;21.72;55.60;99991.91;4956749;28;45524;-74
2022/09/13 03:48:37;;;;;;;;;3.00;3.00;;;;;21.74;55.81;100006.09;4972475;28;46568;-73
2022/09/13 03:51:04;;;;;;;;;2.50;2.50;;;;;21.75;56.02;100001.56;4973257;28;45497;-73
2022/09/13 03:53:34;;;;;;;;;5.50;2.50;;;;;21.74;56.35;100000.72;4972432;28;45500;-74
2022/09/13 03:56:00;;;;;;;;;2.00;2.00;;;;;21.72;55.79;99994.59;4972472;28;45682;-74
2022/09/13 03:58:25;;;;;;;;;3.00;2.25;;;;;21.70;56.06;99987.63;4971478;28;45547;-72
2022/09/13 04:00:53;;;;;;;;;2.50;2.50;;;;;21.69;55.97;99996.66;4962369;28;45670;-74
2022/09/13 04:03:18;;;;;;;;;2.00;1.00;;;;;21.65;56.59;99993.31;4952817;28;45423;-72
2022/09/13 04:05:45;;;;;;;;;2.25;2.25;;;;;21.56;56.07;99991.34;4953211;28;45567;-74
2022/09/13 04:08:10;;;;;;;;;1.50;1.50;;;;;21.61;56.28;99994.56;4952665;28;45591;-74
2022/09/13 04:10:36;;;;;;;;;2.00;2.00;;;;;21.65;56.35;100007.66;4985842;28;45521;-73
2022/09/13 04:13:02;;;;;;;;;6.00;3.00;;;;;21.65;56.29;99999.59;5032117;28;45305;-72
2022/09/13 04:15:30;;;;;;;;;2.00;2.00;;;;;21.65;56.32;99991.50;5032956;28;45636;-73
2022/09/13 04:17:55;;;;;;;;;2.50;2.50;;;;;21.63;56.90;99988.06;5021864;28;46200;-73
2022/09/13 04:20:21;;;;;;;;;4.00;2.00;;;;;21.55;56.59;99979.72;5013940;28;45428;-75
2022/09/13 04:22:54;;;;;;;;;2.50;2.00;;;;;21.55;56.94;99976.19;5013201;28;45779;-73
2022/09/13 04:25:21;;;;;;;;;2.75;2.75;;;;;21.57;56.82;99987.69;5013734;28;45499;-72
2022/09/13 04:27:46;;;;;;;;;2.00;2.00;;;;;21.58;56.82;100003.69;4996034;28;45591;-73
2022/09/13 04:30:12;;;;;;;;;2.00;2.00;;;;;21.60;56.94;100019.72;5031486;28;45509;-73
2022/09/13 04:32:37;;;;;;;;;2.25;1.75;;;;;21.56;56.97;100007.47;5033370;28;45415;-73
2022/09/13 04:35:03;;;;;;;;;2.00;2.00;;;;;21.57;56.94;99996.59;5034254;28;45342;-74
2022/09/13 04:37:28;;;;;;;;;1.00;1.00;;;;;21.60;57.07;99982.91;5015698;28;46592;-74
2022/09/13 04:39:53;;;;;;;;;1.50;1.00;;;;;21.61;57.17;99983.78;5032501;28;45401;-73
2022/09/13 04:42:19;;;;;;;;;2.25;2.00;;;;;21.59;57.11;99996.47;5033562;28;45415;-75
2022/09/13 04:44:44;;;;;;;;;1.75;1.75;;;;;21.56;57.07;99992.22;5036467;28;45475;-74
2022/09/13 04:47:10;;;;;;;;;1.00;1.00;;;;;21.61;57.27;99989.19;5036381;28;45451;-74
2022/09/13 04:49:35;;;;;;;;;2.25;2.25;;;;;21.59;57.32;100001.84;5036411;28;45582;-73
2022/09/13 04:52:01;;;;;;;;;2.75;2.75;;;;;21.59;57.26;100009.91;5035611;28;45467;-74
2022/09/13 04:54:26;;;;;;;;;3.00;3.00;;;;;21.58;57.46;100000.16;5036884;28;45493;-74
2022/09/13 04:56:53;;;;;;;;;2.00;2.00;;;;;21.55;57.57;100003.94;5036984;28;45983;-73
2022/09/13 04:59:19;;;;;;;;;2.00;2.00;;;;;21.53;57.38;100003.19;5035957;28;45326;-74
2022/09/13 05:01:44;;;;;;;;;1.75;1.25;;;;;21.57;57.57;100010.03;5036779;28;45498;-73
2022/09/13 05:04:10;;;;;;;;;3.00;3.00;;;;;21.45;57.54;99973.28;5037017;28;45478;-74
2022/09/13 05:06:35;;;;;;;;;2.75;2.00;;;;;21.57;57.44;99995.75;5036780;28;45499;-74
2022/09/13 05:09:01;;;;;;;;;3.00;3.00;;;;;21.56;57.52;99991.34;5034173;28;45437;-74
2022/09/13 05:11:27;;;;;;;;;3.00;2.50;;;;;21.51;57.54;99974.72;5036807;28;45505;-74
2022/09/13 05:13:55;;;;;;;;;2.25;2.25;;;;;21.52;57.71;99995.25;5036811;28;45580;-75
2022/09/13 05:16:23;;;;;;;;;3.00;2.00;;;;;21.46;57.49;100008.13;5037055;28;46247;-74
2022/09/13 05:18:49;;;;;;;;;2.50;2.50;;;;;21.48;57.62;100027.69;5036331;28;45415;-72
2022/09/13 05:21:14;;;;;;;;;5.00;3.00;;;;;21.49;57.80;100031.22;5036992;28;45518;-74
2022/09/13 05:23:40;;;;;;;;;5.25;3.25;;;;;21.48;57.80;100027.69;5017422;28;45437;-73
2022/09/13 05:26:05;;;;;;;;;5.00;1.25;;;;;21.48;58.13;100011.56;5036403;28;45590;-74
2022/09/13 05:28:34;;;;;;;;;1.00;1.00;;;;;21.47;58.04;100001.78;5036785;28;45592;-74
2022/09/13 05:31:02;;;;;;;;;2.00;2.00;;;;;21.46;58.08;100007.28;5036652;28;45438;-75
2022/09/13 05:33:29;;;;;;;;;2.00;2.00;;;;;21.46;58.58;100009.97;5036875;28;45519;-74
2022/09/13 05:35:54;;;;;;;;;2.50;2.00;;;;;21.44;58.38;100009.22;5035969;28;46167;-74
2022/09/13 05:38:21;;;;;;;;;2.00;2.00;;;;;21.39;58.49;99996.13;5036084;28;45402;-74
2022/09/13 05:40:46;;;;;;;;;2.00;2.00;;;;;21.39;58.05;100001.50;5035292;28;45420;-73
2022/09/13 05:43:12;;;;;;;;;1.75;1.75;;;;;21.44;58.39;100007.38;5036091;28;45427;-74
2022/09/13 05:45:37;;;;;;;;;2.00;2.00;;;;;21.41;57.98;100009.47;5036107;28;45410;-74
2022/09/13 05:48:04;;;;;;;;;3.00;3.00;;;;;21.42;58.53;100021.91;5036027;28;45485;-74
2022/09/13 05:50:29;;;;;;;;;1.75;1.75;;;;;21.39;58.38;100016.75;5035229;28;45462;-72
2022/09/13 05:52:55;;;;;;;;;3.00;3.00;;;;;21.38;58.47;100015.03;5036229;28;45585;-74
2022/09/13 05:55:21;;;;;;;;;3.75;2.75;;;;;21.36;58.74;100009.78;5035569;28;46025;-74
2022/09/13 05:57:47;;;;;;;;;2.50;2.50;;;;;21.37;58.36;100007.97;5034859;28;45443;-74
2022/09/13 06:00:14;;;;;;;;;2.25;2.25;;;;;21.34;58.08;100003.66;5036386;28;45419;-74
2022/09/13 06:02:40;;;;;;;;;1.50;1.50;;;;;21.35;58.33;100004.50;5036705;28;45346;-74
2022/09/13 06:05:09;;;;;;;;;3.75;2.75;;;;;21.35;58.37;100005.38;5034405;28;46273;-74
2022/09/13 06:07:35;;;;;;;;;3.00;1.50;;;;;21.32;58.28;100000.25;5035503;28;45525;-74
2022/09/13 06:10:01;;;;;;;;;3.75;2.00;;;;;21.32;58.10;99994.88;5036378;28;45401;-74
2022/09/13 06:12:27;;;;;;;;;3.00;3.00;;;;;21.19;58.02;99978.78;5032391;28;45409;-74
2022/09/13 06:14:52;;;;;;;;;2.00;2.00;;;;;21.21;58.24;99984.91;5035752;28;45474;-77
2022/09/13 06:17:17;;;;;;;;;1.00;1.00;;;;;21.22;58.21;99988.44;5036051;28;45475;-77
2022/09/13 06:19:43;;;;;;;;;5.50;2.00;;;;;21.24;58.14;99995.44;5036742;28;47346;-76
2022/09/13 06:22:09;;;;;;;;;4.00;2.50;;;;;21.25;58.11;99982.84;5037608;28;45527;-77
2022/09/13 06:24:36;;;;;;;;;6.25;4.00;;;;;21.29;58.00;99984.34;5038877;28;45552;-77
2022/09/13 06:27:03;;;;;;;;;2.75;2.25;;;;;21.36;57.77;99982.91;5019863;28;45717;-76
2022/09/13 06:29:28;;;;;;;;;1.75;1.50;;;;;21.42;58.05;99968.16;5016031;28;46972;-76
2022/09/13 06:31:53;;;;;;;;;3.50;2.25;;;;;21.48;58.00;99968.56;5031811;28;45684;-76
2022/09/13 06:34:19;;;;;;;;;5.00;3.00;;;;;21.55;57.27;99946.63;5034407;28;45517;-77
2022/09/13 06:36:44;;;;;;;;;2.75;2.75;;;;;21.72;56.87;99958.78;5035818;28;45491;-76
2022/09/13 06:39:11;;;;;;;;;5.50;3.25;;;;;21.80;56.74;99945.59;5035625;28;45411;-78
2022/09/13 06:41:36;;;;;;;;;2.50;2.50;;;;;21.94;56.21;99941.81;5035966;28;45472;-76
2022/09/13 06:44:02;;;;;;;;;6.00;4.00;;;;;22.13;55.98;99942.09;5034695;28;45537;-76
2022/09/13 06:46:30;;;;;;;;;4.00;2.50;;;;;22.26;55.18;99938.44;5034226;28;45332;-76
2022/09/13 06:48:59;;;;;;;;;3.00;2.00;;;;;22.49;54.41;99937.53;5035385;28;45437;-76
2022/09/13 06:51:25;;;;;;;;;3.50;2.00;;;;;22.83;53.72;99929.41;5037887;28;45402;-78
2022/09/13 06:53:55;;;;;;;;;2.75;2.00;;;;;23.02;53.32;99917.97;5018939;28;45742;-77
2022/09/13 06:56:22;;;;;;;;;4.50;3.25;;;;;23.15;53.16;99928.63;5035389;28;45340;-76
2022/09/13 06:58:50;;;;;;;;;6.25;2.75;;;;;23.12;52.66;99915.41;5035645;28;45438;-76
2022/09/13 07:01:27;;;;;;;;;4.25;2.25;;;;;23.05;52.77;99906.09;5035012;28;45553;-76
2022/09/13 07:03:57;;;;;;;;;3.00;2.50;;;;;22.92;53.26;99905.41;5034788;28;45345;-77
2022/09/13 07:06:28;;;;;;;;;4.00;2.00;;;;;22.81;53.13;99904.44;5033857;28;45507;-75
2022/09/13 07:08:55;;;;;;;;;3.00;3.00;;;;;22.74;53.52;99903.22;5034727;28;45384;-77
2022/09/13 07:11:22;;;;;;;;;2.00;2.00;;;;;22.67;53.80;99904.72;5034998;28;45549;-76
2022/09/13 07:13:55;;;;;;;;;7.50;3.00;;;;;22.73;54.06;99912.31;5017561;28;45467;-77
2022/09/13 07:16:23;;;;;;;;;7.25;2.75;;;;;22.73;54.06;99898.84;5035318;28;45410;-77
2022/09/13 07:18:56;;;;;;;;;5.50;5.50;;;;;22.75;53.84;99904.09;5034639;28;45408;-76
2022/09/13 07:21:22;;;;;;;;;4.75;2.00;;;;;22.73;54.87;99898.84;5031278;28;45427;-76
2022/09/13 07:23:48;;;;;;;;;4.00;4.00;;;;;22.75;54.00;99899.56;5038138;28;45424;-75
2022/09/13 07:26:15;;;;;;;;;6.25;3.00;;;;;22.77;53.99;99894.03;5035300;28;45519;-76
2022/09/13 07:28:44;;;;;;;;;2.50;2.50;;;;;22.81;54.53;99888.28;5030292;28;45559;-76
2022/09/13 07:31:14;;;;;;;;;7.00;2.00;;;;;22.89;53.39;99896.56;5030047;28;45426;-77
2022/09/13 07:33:41;;;;;;;;;2.00;2.00;;;;;23.00;53.42;99894.84;5024090;28;45967;-77
2022/09/13 07:36:10;;;;;;;;;6.00;3.00;;;;;23.11;53.78;99894.84;5028921;28;45466;-77
2022/09/13 07:38:37;;;;;;;;;6.00;4.00;;;;;23.23;53.06;99899.22;5025359;28;45699;-76
2022/09/13 07:41:05;;;;;;;;;2.50;2.50;;;;;23.38;52.62;99909.66;5029235;28;45525;-78
2022/09/13 07:43:33;;;;;;;;;5.25;4.25;;;;;23.42;52.12;99898.50;5021160;28;46137;-77
2022/09/13 07:46:03;;;;;;;;;3.00;2.00;;;;;23.49;52.17;99904.25;5032506;28;45435;-77
2022/09/13 07:48:31;;;;;;;;;4.50;2.50;;;;;23.45;51.82;99907.34;5035943;28;45538;-78
2022/09/13 07:50:59;;;;;;;;;3.00;3.00;;;;;23.41;52.38;99895.94;5014995;28;45490;-74
2022/09/13 07:53:24;;;;;;;;;2.25;2.25;;;;;23.42;52.13;99897.66;5033349;28;46358;-76
2022/09/13 07:55:50;;;;;;;;;3.75;3.75;;;;;23.49;51.75;99909.63;5033708;28;45470;-77
2022/09/13 07:58:15;;;;;;;;;3.00;3.00;;;;;23.39;51.82;99904.16;5031056;28;45398;-77
2022/09/13 08:00:41;;;;;;;;;3.00;2.00;;;;;23.34;52.06;99908.25;5014930;28;45380;-77
2022/09/13 08:03:07;;;;;;;;;3.25;2.75;;;;;23.26;52.12;99913.41;5027468;28;45303;-76
2022/09/13 08:05:38;;;;;;;;;3.25;2.00;;;;;22.88;52.21;99877.84;5015761;28;45441;-75
2022/09/13 08:08:06;;;;;;;;;3.50;2.50;;;;;23.09;53.07;99912.09;5017747;28;45429;-82
2022/09/13 08:10:31;;;;;;;;;2.75;2.75;;;;;23.03;52.70;99917.00;5036684;28;45484;-77
2022/09/13 08:12:57;;;;;;;;;4.00;3.00;;;;;22.94;52.82;99907.00;5017335;28;45584;-77
2022/09/13 08:15:22;;;;;;;;;3.25;2.25;;;;;22.95;53.23;99907.84;5018142;28;45492;-78
2022/09/13 08:17:47;;;;;;;;;1.50;1.50;;;;;22.96;53.03;99913.09;5033387;28;45344;-74
2022/09/13 08:20:13;;;;;;;;;3.50;2.25;;;;;22.92;52.89;99911.63;5028866;28;45585;-73
2022/09/13 08:22:38;;;;;;;;;3.00;2.00;;;;;22.88;53.20;99900.25;5023321;28;45580;-75
2022/09/13 08:25:04;;;;;;;;;5.00;3.75;;;;;22.94;53.05;99907.00;5025552;28;45384;-75
2022/09/13 08:27:29;;;;;;;;;1.75;1.75;;;;;22.89;52.94;99909.19;5024701;28;45534;-75
2022/09/13 08:29:55;;;;;;;;;4.50;4.50;;;;;22.93;53.43;99899.00;5035224;28;45402;-75
2022/09/13 08:32:20;;;;;;;;;6.50;4.75;;;;;22.97;53.15;99898.66;5028237;28;45535;-75
2022/09/13 08:34:45;;;;;;;;;4.50;4.00;;;;;23.00;53.07;99911.00;5029079;28;45499;-75
2022/09/13 08:37:12;;;;;;;;;3.25;3.25;;;;;23.00;52.95;99908.31;5026306;28;45542;-74
2022/09/13 08:39:37;;;;;;;;;5.00;3.25;;;;;22.96;53.78;99912.25;5020124;28;45503;-75
2022/09/13 08:42:21;;;;;;;;;2.00;2.00;;;;;22.95;53.73;99924.00;5026294;28;46113;-74
2022/09/13 08:44:55;;;;;;;;;1.00;1.00;;;;;23.00;53.61;99921.78;5029783;28;45409;-75
2022/09/13 08:47:45;;;;;;;;;6.75;3.50;;;;;23.14;53.41;99939.53;5023384;28;45339;-75
2022/09/13 08:50:19;;;;;;;;;5.50;3.00;;;;;23.27;53.69;99947.47;5030797;28;45576;-75
2022/09/13 08:52:49;;;;;;;;;2.25;2.25;;;;;23.36;53.18;99941.31;5029782;28;45635;-75
2022/09/13 08:55:24;;;;;;;;;3.75;3.25;;;;;23.46;52.44;99941.38;5034182;28;45363;-74
2022/09/13 08:58:15;;;;;;;;;2.00;2.00;;;;;23.56;52.31;99945.88;5025952;28;45608;-75
2022/09/13 09:00:47;;;;;;;;;1.00;1.00;;;;;23.67;52.76;99949.50;5022401;28;45413;-75
2022/09/13 09:03:28;;;;;;;;;3.50;1.00;;;;;23.65;52.23;99946.09;5024179;28;45541;-75
2022/09/13 09:05:53;;;;;;;;;2.00;2.00;;;;;23.58;52.22;99946.59;5025458;28;45529;-75
2022/09/13 09:08:40;;;;;;;;;2.00;2.00;;;;;23.62;52.13;99949.88;5034640;28;45869;-75
2022/09/13 09:11:20;;;;;;;;;1.00;1.00;;;;;23.58;51.98;99960.09;5027431;28;45462;-74
2022/09/13 09:14:11;;;;;;;;;2.00;2.00;;;;;23.54;52.72;99966.72;5039552;28;45486;-75
2022/09/13 09:16:43;;;;;;;;;2.00;2.00;;;;;23.64;52.36;99983.00;5014508;28;45467;-74
2022/09/13 09:19:24;;;;;;;;;3.00;3.00;;;;;23.55;52.49;99972.97;5022734;28;45364;-76
2022/09/13 09:21:51;;;;;;;;;2.00;2.00;;;;;23.42;57.15;99974.00;5028920;28;45411;-75
2022/09/13 09:24:24;;;;;;;;;4.25;3.00;;;;;23.23;59.62;99958.50;5032568;28;46106;-75
2022/09/13 09:26:49;;;;;;;;;2.75;2.75;;;;;23.10;62.80;99954.25;5026262;28;45427;-77
2022/09/13 09:29:24;;;;;;;;;2.75;2.75;;;;;22.99;62.79;99961.34;5025537;28;45362;-77
2022/09/13 09:31:57;;;;;;;;;3.00;3.00;;;;;22.98;62.66;99958.78;5031500;28;45482;-76
2022/09/13 09:34:41;;;;;;;;;6.00;4.25;;;;;23.05;60.31;99970.78;5026607;28;46190;-76
2022/09/13 09:37:20;;;;;;;;;4.50;4.50;;;;;23.21;63.55;99963.16;5021411;28;45491;-75
2022/09/13 09:39:45;;;;;;;;;8.00;4.00;;;;;23.29;62.02;99967.94;5020590;28;45417;-76
2022/09/13 09:42:18;;;;;;;;;6.50;5.00;;;;;23.36;60.82;99969.09;5026556;28;45562;-77
2022/09/13 09:44:48;;;;;;;;;3.00;3.00;;;;;23.40;58.71;99969.72;5022814;28;45704;-76
2022/09/13 09:47:25;;;;;;;;;8.25;3.00;;;;;23.42;58.60;99981.22;5028021;28;45583;-75
2022/09/13 09:50:08;;;;;;;;;5.00;3.00;;;;;23.45;57.37;99980.97;5028047;28;45535;-75
2022/09/13 09:52:52;;;;;;;;;4.00;4.00;;;;;23.54;58.39;99977.50;5027519;28;45484;-77
2022/09/13 09:55:29;;;;;;;;;3.50;3.50;;;;;23.66;58.34;99974.78;5027881;28;46188;-77
2022/09/13 09:58:03;;;;;;;;;3.00;3.00;;;;;23.70;57.21;99987.00;5023404;28;45453;-77
2022/09/13 10:00:31;;;;;;;;;1.00;1.00;;;;;23.74;56.15;99983.06;5019643;28;45628;-76
2022/09/13 10:03:01;;;;;;;;;5.00;3.00;;;;;23.77;56.07;99982.81;5024050;28;45574;-75
2022/09/13 10:05:31;;;;;;;;;2.00;2.00;;;;;23.88;56.19;99973.81;5009629;28;47154;-75
2022/09/13 10:08:06;;;;;;;;;3.25;3.00;;;;;23.97;55.32;99982.97;5025267;28;45423;-74
2022/09/13 10:10:41;;;;;;;;;6.50;4.00;;;;;24.05;54.76;99981.34;5033946;28;45699;-77
2022/09/13 10:13:17;;;;;;;;;5.50;5.50;;;;;24.10;54.52;99973.69;5028969;28;45480;-77
2022/09/13 10:15:54;;;;;;;;;5.00;2.50;;;;;24.19;53.63;99976.59;5034462;28;46123;-77
2022/09/13 10:18:21;;;;;;;;;2.00;2.00;;;;;24.26;53.39;99984.03;5028179;28;45421;-76
2022/09/13 10:21:16;;;;;;;;;5.00;3.00;;;;;24.36;52.72;99994.03;5029437;28;45799;-79
2022/09/13 10:23:41;;;;;;;;;1.00;0.25;;;;;24.28;52.05;99981.19;5015765;28;45733;-75
2022/09/13 10:26:14;;;;;;;;;3.75;3.75;;;;;24.27;52.34;99983.03;5024239;28;45451;-76
2022/09/13 10:28:51;;;;;;;;;3.00;3.00;;;;;24.27;51.93;99983.03;5026543;28;45617;-75
2022/09/13 10:31:19;;;;;;;;;2.00;2.00;;;;;24.22;51.83;99963.69;5030219;28;45449;-78
2022/09/13 10:33:50;;;;;;;;;7.50;6.50;;;;;24.21;51.77;99974.63;5023941;28;45429;-77
2022/09/13 10:36:23;;;;;;;;;3.75;3.75;;;;;24.17;52.14;99973.16;5025619;28;45379;-76
2022/09/13 10:38:59;;;;;;;;;3.50;3.50;;;;;24.09;51.68;99965.72;5024442;28;45515;-76
2022/09/13 10:41:27;;;;;;;;;6.50;4.75;;;;;24.14;52.17;99974.28;5018717;28;45593;-76
2022/09/13 10:44:01;;;;;;;;;3.00;3.00;;;;;24.27;51.42;99958.72;5011669;28;45577;-77
2022/09/13 10:46:30;;;;;;;;;3.00;3.00;;;;;24.43;52.02;99958.25;5027848;28;45442;-76
2022/09/13 10:48:56;;;;;;;;;3.75;3.75;;;;;24.51;51.06;99960.28;5029476;28;45449;-76
2022/09/13 10:51:30;;;;;;;;;20.25;20.25;;;;;24.62;51.20;99960.19;5016195;28;45560;-76
2022/09/13 10:54:14;;;;;;;;;3.00;2.00;;;;;24.53;51.11;99952.03;5032071;28;45529;-76
2022/09/13 10:56:39;;;;;;;;;4.00;4.00;;;;;24.61;50.32;99954.94;5026771;28;45569;-77
2022/09/13 10:59:28;;;;;;;;;3.75;3.00;;;;;24.79;50.98;99950.63;5023016;28;45456;-77
2022/09/13 11:02:05;;;;;;;;;5.00;4.75;;;;;25.01;50.21;99938.69;5025132;28;45418;-74
2022/09/13 11:05:05;;;;;;;;;6.50;5.00;;;;;25.08;49.78;99930.88;5018815;28;45615;-73
2022/09/13 11:07:49;;;;;;;;;3.75;3.75;;;;;25.24;49.16;99940.31;5015299;28;46213;-75
2022/09/13 11:10:33;;;;;;;;;3.50;2.25;;;;;25.42;48.64;99937.81;5028016;28;45477;-75
2022/09/13 11:13:11;;;;;;;;;3.25;3.25;;;;;25.58;48.58;99937.22;5029079;28;45360;-76
2022/09/13 11:15:59;;;;;;;;;4.75;4.00;;;;;25.75;48.36;99938.34;5026903;28;45633;-76
2022/09/13 11:18:33;;;;;;;;;2.25;2.25;;;;;25.94;47.63;99943.72;4934563;28;46393;-75
2022/09/13 11:21:12;;;;;;;;;1.75;1.00;;;;;26.09;48.28;99935.19;4942103;28;45370;-75
2022/09/13 11:24:21;;;;;;;;;0.75;0.00;;;;;26.17;47.06;99944.25;4953429;28;45555;-75
2022/09/13 11:27:34;;;;;;;;;2.25;2.25;;;;;26.37;47.44;99941.50;4953636;28;45348;-74
2022/09/13 11:30:20;;;;;;;;;7.00;7.00;;;;;26.34;46.99;99939.97;4895216;28;46011;-74
2022/09/13 11:33:04;;;;;;;;;3.50;3.50;;;;;26.35;46.39;99932.69;4955396;28;45462;-76
2022/09/13 11:35:58;;;;;;;;;4.50;4.00;;;;;26.28;45.87;99929.69;4958024;28;45489;-75
2022/09/13 11:39:10;;;;;;;;;3.00;3.00;;;;;26.27;45.93;99922.59;4950599;28;45735;-76
2022/09/13 11:42:09;;;;;;;;;3.00;3.00;;;;;26.35;46.07;99936.22;4895346;29;47891;-75
2022/09/13 11:45:03;;;;;;;;;4.00;4.00;;;;;26.34;45.72;99931.84;4895649;29;45449;-74
2022/09/13 11:47:44;;;;;;;;;4.75;4.75;;;;;26.18;46.18;99928.88;4894901;29;45723;-75
2022/09/13 11:50:32;;;;;;;;;6.00;5.00;;;;;26.28;46.14;99920.72;4895673;28;45529;-76
2022/09/13 11:53:06;;;;;;;;;3.00;3.00;;;;;26.23;45.76;99915.75;4895395;29;46416;-75